15:07
Airports
Links
Donate
Help keep this website running!
PayPal
Bitcoin
METAR
UIII 231430Z 31004MPS 9999 -SHSN SCT050CB M12/M14 Q1022 R30/490240 NOSIG RMK QFE722/0962
Current Weather Conditions at UIII
VFR 14:30:00 23-11-17
Altimeter:30.18 hg
Temp:-12.0°c 10°f
Dew point:-14.0°cf
Wind:8 knots, 9.2 mph, 4 m/s, from 310°
Visibility:6.21 statute miles
5000(SCT) Scattered
No significant weather changes expected within 2 hours.
Past METAR reports
VFR 14:00:00 23-11-17
Altimeter:30.18 hg
Temp:-12.0°c 10°f
Dew point:-14.0°cf
Wind:6 knots, 6.9 mph, 3 m/s, from 340°
Visibility:6.21 statute miles
5000(SCT) Scattered
No significant weather changes expected within 2 hours.
UIII 231400Z 34003MPS 9999 -SHSN SCT050CB M12/M14 Q1022 R30/490240 NOSIG RMK QFE722/0963
VFR 13:30:00 23-11-17
Altimeter:30.21 hg
Temp:-11.0°c 12°f
Dew point:-13.0°cf
Wind:8 knots, 9.2 mph, 4 m/s, from 330°
Visibility:6.21 statute miles
5000(SCT) Scattered
No significant weather changes expected within 2 hours.
UIII 231330Z 33004MPS 9999 -SHSN SCT050CB M11/M13 Q1023 R30/490240 NOSIG RMK QFE722/0963
VFR 13:00:00 23-11-17
Altimeter:30.21 hg
Temp:-11.0°c 12°f
Dew point:-13.0°cf
Wind:6 knots, 6.9 mph, 3 m/s, from 330°
Visibility:6.21 statute miles
5000(SCT) Scattered
No significant weather changes expected within 2 hours.
UIII 231300Z 33003MPS 9999 -SHSN SCT050CB M11/M13 Q1023 R30/490240 NOSIG RMK QFE722/0963
VFR 12:30:00 23-11-17
Altimeter:30.21 hg
Temp:-10.0°c 14°f
Dew point:-13.0°cf
Wind:6 knots, 6.9 mph, 3 m/s, from 330°
Visibility:6.21 statute miles
5000(SCT) Scattered
No significant weather changes expected within 2 hours.
UIII 231230Z 33003MPS 9999 -SHSN SCT050CB M10/M13 Q1023 R30/490240 NOSIG RMK QFE722/0963
VFR 12:00:00 23-11-17
Altimeter:30.21 hg
Temp:-10.0°c 14°f
Dew point:-13.0°cf
Wind:8 knots, 9.2 mph, 4 m/s, from 330°
Visibility:6.21 statute miles
5000(FEW) A few
No significant weather changes expected within 2 hours.
UIII 231200Z 33004MPS 9999 FEW050CB M10/M13 Q1023 R30/490240 NOSIG RMK QFE722/0963
VFR 11:30:00 23-11-17
Altimeter:30.21 hg
Temp:-10.0°c 14°f
Dew point:-13.0°cf
Wind:8 knots, 9.2 mph, 4 m/s, from 310°
Visibility:6.21 statute miles
5000(FEW) A few
No significant weather changes expected within 2 hours.
UIII 231130Z 31004MPS 9999 FEW050CB M10/M13 Q1023 R30/490240 NOSIG RMK QFE722/0963
TAF
TAF UIII 231400Z 2315/2415 32003MPS 9999 SCT015CB TEMPO 2315/2402 0500 -SHSN FZFG VV001 BECMG 2406/2408 BKN007CB TEMPO 2408/2415 0900 +SHSN VV003
Forecast at UIII
15:00 23-11-17 to 06:00 24-11-17
Wind:6 Knots from 320°
Visibility:6.21 statute miles
1500SCT Scattered
TEMPO 15:00 23-11-17 to 02:00 24-11-17
-SHSN FZFG
Visibility:0.31 statute miles
OVX
BECMG 06:00 24-11-17 to 15:00 24-11-17
Wind:6 Knots from 320°
Visibility:6.21 statute miles
700BKN Broken
TEMPO 08:00 24-11-17 to 15:00 24-11-17
+SHSN
Visibility:0.56 statute miles
OVX